• Join FlightAware (Why Join?)
  • Login
  • US Flag 
04:29PM EDT


 

Airport Tracker/Info


-or-


 

Live Flight TrackerFlight Track Log ✈ N7545J ✈ 18-Dec-2013 ✈ KGAD - KPDK

Flight Track Log - Related Links

Times and Time Zones

All times are in EST time to prevent confusion due to time zone crossing. See the N7545J flight status page for this flight to view local times or setup timezone preferences in your user account.

Time Position Orientation Groundspeed Altitude Reporting Facility
EST Latitude Longitude Course Direction KTS MPH feet Rate Location/Type
01:08PM 33.9640 -85.7814 92° East  Level FlightAware Approximate
01:09PM 33.9625 -85.7302 92° East  Level FlightAware Approximate
01:10PM 33.9609 -85.6789 92° East  Level FlightAware Approximate
01:10PM 33.9761 -85.7847 91° East 130 150 4,700  Level Atlanta Center
01:11PM 33.9580 -85.6277 90° East  Level Estimated
01:11PM 33.9744 -85.7397 93° East 125 144 5,000  Level Atlanta Center
01:12PM 33.9573 -85.5764 91° East  Level FlightAware Approximate
01:12PM 33.9708 -85.6969 96° East 125 144 5,100  Level Atlanta Center
01:13PM 33.9717 -85.6494 89° East 125 144 5,100  Level Atlanta Center
01:14PM 33.9722 -85.5994 89° East 136 157 5,100  Level Atlanta Center
01:15PM 33.9708 -85.5492 92° East 142 163 5,100 -60 Level Atlanta Center
01:16PM 33.9694 -85.4967 92° East 142 163 5,000 -60 Descending Atlanta Center
01:17PM 33.9678 -85.4489 92° East 142 163 5,000  Level Atlanta Center
01:18PM 33.9664 -85.3989 92° East 142 163 5,000  Level Atlanta Center
01:19PM 33.9647 -85.3539 93° East 142 163 5,000  Level Atlanta Center
01:20PM 33.9653 -85.3036 89° East 142 163 5,000  Level Atlanta Center
01:21PM 33.9636 -85.2586 93° East 142 163 5,100  Climbing Atlanta Center
01:22PM 33.9619 -85.2108 92° East 142 163 5,100  Level Atlanta Center
01:23PM 33.9603 -85.1608 92° East 142 163 5,100 -60 Level Atlanta Center
01:24PM 33.9586 -85.1108 92° East 142 163 5,000 -60 Descending Atlanta Center
01:25PM 33.9569 -85.0606 92° East 142 163 5,000  Level Atlanta Center
01:26PM 33.9553 -85.0181 93° East 142 163 5,000  Level Atlanta Center
01:27PM 33.9536 -84.9703 92° East 142 163 5,000  Level Atlanta Center
01:28PM 33.9539 -84.9228 90° East 137 158 5,000  Level Atlanta Center
01:30PM 33.9500 -84.8333 93° East 149 171 5,000  Level Atlanta TRACON
01:31PM 33.9500 -84.7667 90° East 150 173 5,000  Level Atlanta TRACON
01:32PM 33.9333 -84.7333 121° Southeast 153 176 5,000  Level Atlanta TRACON
01:33PM 33.9333 -84.6667 90° East 154 177 5,000  Level Atlanta TRACON
01:34PM 33.9167 -84.6333 121° Southeast 152 175 5,000 -60 Level Atlanta TRACON
01:35PM 33.9167 -84.5833 90° East 151 174 4,900 -60 Descending Atlanta TRACON
01:36PM 33.9000 -84.5333 112° Southeast 153 176 4,900 -60 Level Atlanta TRACON
01:37PM 33.9000 -84.4833 90° East 150 173 4,800 -60 Descending Atlanta TRACON
01:38PM 33.8667 -84.4500 140° Southeast 140 161 4,800  Level Atlanta TRACON
01:39PM 33.8333 -84.4167 140° Southeast 135 155 4,900 -240 Climbing Atlanta TRACON
01:40PM 33.8167 -84.3833 121° Southeast 132 152 4,300 -840 Descending Atlanta TRACON
01:41PM 33.8167 -84.3500 90° East 93 107 3,200 -960 Descending Atlanta TRACON
01:42PM 33.8333 -84.3333 40° Northeast 111 128 2,500 -900 Descending Atlanta TRACON
01:43PM 33.8500 -84.3167 40° Northeast 89 102 1,600 -900 Descending Atlanta TRACON
01:45PM 33.8667 -84.3000 90° East  Level FlightAware Approximate
01:52PM 33.8756 -84.3020 90° East  Level Estimated